ADDS METAR Data INFO
IDs: Format: Raw Decoded Include TAF

Data at: 0201 UTC 19 Jul 2018

KPKV 190155Z AUTO 16005KT 10SM CLR 29/25 A2994 RMK AO2 T02870250
KPKV 190135Z AUTO 17006KT 10SM SCT019 29/25 A2993 RMK AO2 T02920251
KPKV 190115Z AUTO 17009KT 10SM SCT019 30/25 A2993 RMK AO2 T02970251
KPKV 190055Z AUTO 17007KT 10SM CLR 30/25 A2992 RMK AO2 T03020252
KPKV 190035Z AUTO 16010KT 10SM CLR 31/25 A2992 RMK AO2 T03050254
KPKV 190015Z AUTO 18011G14KT 10SM SCT021 31/25 A2992 RMK AO2 T03100252
KPKV 182355Z AUTO 17010G14KT 10SM CLR 32/25 A2992 RMK AO2 T03150252 10350 20312
KPKV 182335Z AUTO 17009KT 10SM CLR 31/25 A2992 RMK AO2 T03130248
KPKV 182315Z AUTO 18009KT 10SM CLR 32/25 A2992 RMK AO2 T03210250
KPKV 182255Z AUTO 18010KT 10SM CLR 32/25 A2993 RMK AO2 T03220249
KPKV 182235Z AUTO 19010KT 10SM CLR 32/24 A2993 RMK AO2 T03200244
KPKV 182215Z AUTO 20009KT 10SM CLR 33/24 A2993 RMK AO2 T03290236
KPKV 182155Z AUTO 21009G14KT 10SM CLR 34/24 A2993 RMK AO2 T03350240
KPKV 182135Z AUTO 21010KT 10SM CLR 34/25 A2994 RMK AO2 T03410247
KPKV 182115Z AUTO 19008KT 10SM CLR 34/25 A2995 RMK AO2 T03420247
KPKV 182055Z AUTO 20006KT 10SM CLR 34/25 A2995 RMK AO2 T03430249
KPKV 182035Z AUTO 20011G16KT 140V220 10SM CLR 35/25 A2996 RMK AO2 T03480249
KPKV 182015Z AUTO 18008KT 10SM SCT032 34/25 A2996 RMK AO2 T03440251
KPKV 181955Z AUTO 18009KT 10SM CLR 35/25 A2997 RMK AO2 T03490248
KPKV 181935Z AUTO 21010G14KT 10SM SCT034 35/25 A2997 RMK AO2 T03450245
KPKV 181915Z AUTO 19007G14KT 10SM SCT036 35/25 A2998 RMK AO2 T03470245
KPKV 181855Z AUTO 22008KT 10SM SCT036 SCT120 35/24 A2998 RMK AO2 T03460242
KPKV 181835Z AUTO 17007KT 10SM CLR 35/24 A2999 RMK AO2 T03450240
KPKV 181815Z AUTO 22008KT 10SM CLR 34/22 A3000 RMK AO2 T03440220
KPKV 181755Z AUTO 21006KT 10SM CLR 34/23 A3000 RMK AO2 T03410230 10342 20255
KPKV 181735Z AUTO 22007KT 10SM CLR 34/23 A3001 RMK AO2 T03360234
KPKV 181715Z AUTO 21005KT 7SM CLR 33/24 A3002 RMK AO2 T03340239
KPKV 181655Z AUTO 22009KT 10SM CLR 33/24 A3002 RMK AO2 T03310235
KPKV 181635Z AUTO 20009KT 10SM CLR 33/24 A3002 RMK AO2 T03320241
KPKV 181615Z AUTO 22010G14KT 190V250 10SM CLR 33/24 A3002 RMK AO2 T03270235
KPKV 181555Z AUTO 21010G14KT 10SM CLR 32/24 A3002 RMK AO2 T03210243
KPKV 181535Z AUTO 20011KT 10SM CLR 32/24 A3002 RMK AO2 T03190239
KPKV 181515Z AUTO 19012KT 7SM CLR 31/24 A3002 RMK AO2 T03130242
KPKV 181455Z AUTO 21011G16KT 10SM SCT020 31/25 A3003 RMK AO2 T03100247
KPKV 181435Z AUTO 21012G17KT 7SM CLR 30/25 A3004 RMK AO2 T03020245
KPKV 181420Z AUTO 20012KT 10SM SCT020 30/25 A3004 RMK AO2 T02980249
KPKV 181400Z AUTO 20009KT 7SM CLR 29/25 A3004 RMK AO2 T02940251
KPKV 181335Z AUTO 21008KT 7SM CLR 29/26 A3004 RMK AO2 T02860259
KPKV 181315Z AUTO 21005KT 7SM CLR 28/26 A3004 RMK AO2 T02770259
KPKV 181255Z AUTO 00000KT 5SM BR SCT016 27/26 A3004 RMK AO2 T02670255
KPKV 181235Z AUTO 00000KT 4SM BR CLR 26/25 A3004 RMK AO2 T02600248
KPKV 181150Z AUTO 22003KT 5SM BR CLR 26/24 A3004 RMK AO2 7//// T02560242 10267 20255
KPKV 181135Z AUTO 20003KT 5SM BR CLR 26/25 A3004 RMK AO2 T02600245
KPKV 181115Z AUTO 00000KT 7SM SCT016 SCT021 27/25 A3003 RMK AO2 T02650250
KPKV 181055Z AUTO 00000KT 7SM SCT016 27/25 A3003 RMK AO2 T02650248
KPKV 181035Z AUTO 22004KT 7SM CLR 27/25 A3002 RMK AO2 T02670250
KPKV 181015Z AUTO 21005KT 7SM CLR 27/25 A3002 RMK AO2 T02660251
KPKV 180955Z AUTO 21005KT 7SM CLR 26/25 A3002 RMK AO2 T02610248
KPKV 180935Z AUTO 21003KT 7SM CLR 26/24 A3002 RMK AO2 T02550241
KPKV 180915Z AUTO 20003KT 7SM SCT015 SCT019 26/24 A3002 RMK AO2 T02550240
KPKV 180855Z AUTO 18004KT 7SM SCT015 SCT019 26/24 A3001 RMK AO2 T02550241
KPKV 180835Z AUTO 00000KT 7SM CLR 26/24 A3002 RMK AO2 T02590242
KPKV 180815Z AUTO 00000KT 7SM CLR 26/25 A3002 RMK AO2 T02620245
KPKV 180755Z AUTO 19003KT 10SM CLR 26/25 A3001 RMK AO2 T02630245
KPKV 180735Z AUTO 18005KT 10SM CLR 27/25 A3001 RMK AO2 T02650245
KPKV 180715Z AUTO 19004KT 10SM CLR 27/25 A3002 RMK AO2 T02650245
KPKV 180655Z AUTO 18006KT 10SM CLR 26/25 A3001 RMK AO2 T02630245
KPKV 180635Z AUTO 15004KT 10SM CLR 26/24 A3002 RMK AO2 T02610241
KPKV 180615Z AUTO 16005KT 10SM CLR 26/24 A3002 RMK AO2 T02620242
KPKV 180555Z AUTO 17006KT 10SM CLR 27/24 A3002 RMK AO2 T02650244 10324 20257
KPKV 180535Z AUTO 16005KT 10SM CLR 26/24 A3002 RMK AO2 T02610241
KPKV 180515Z AUTO 16004KT 10SM CLR 26/24 A3003 RMK AO2 T02570236
KPKV 180455Z AUTO 16003KT 10SM CLR 26/24 A3003 RMK AO2 T02620240
KPKV 180435Z AUTO 00000KT 10SM CLR 27/24 A3004 RMK AO2 T02650240
KPKV 180415Z AUTO 17004KT 10SM CLR 27/24 A3003 RMK AO2 T02650240
KPKV 180355Z AUTO 17003KT 10SM CLR 27/24 A3003 RMK AO2 T02680241
KPKV 180340Z AUTO 17004KT 10SM CLR 27/24 A3003 RMK AO2 T02670241
KPKV 180315Z AUTO 18004KT 10SM CLR 27/24 A3002 RMK AO2 T02700242
KPKV 180255Z AUTO 16004KT 10SM CLR 27/24 A3002 RMK AO2 T02730243
KPKV 180235Z AUTO 17004KT 10SM CLR 28/24 A3001 RMK AO2 T02760242
KPKV 180215Z AUTO 17004KT 10SM CLR 28/24 A3001 RMK AO2 T02800241
KPKV 180155Z AUTO 17005KT 10SM CLR 29/24 A3001 RMK AO2 T02850241
KPKV 180135Z AUTO 16006KT 10SM CLR 29/24 A3001 RMK AO2 T02890240
KPKV 180115Z AUTO 17007KT 10SM CLR 30/24 A3001 RMK AO2 T02970238
KPKV 180055Z AUTO 16009KT 10SM CLR 31/24 A3001 RMK AO2 T03060236
KPKV 180035Z AUTO 17009KT 10SM CLR 31/23 A3002 RMK AO2 T03120233
KPKV 180020Z AUTO 17007KT 10SM CLR 32/23 A3001 RMK AO2 T03170230
KPKV 172355Z AUTO 18010KT 10SM CLR 33/23 A3001 RMK AO2 T03250230 10354 20325
KPKV 172235Z AUTO 18008KT 10SM CLR 34/22 A3002 RMK AO2 T03410223
KPKV 172155Z AUTO 19009KT 10SM CLR 35/22 A3002 RMK AO2 T03470218
KPKV 172135Z AUTO 21008KT 10SM CLR 35/22 A3002 RMK AO2 T03470219
KPKV 172115Z AUTO 20006KT 10SM CLR 35/21 A3002 RMK AO2 T03500208
KPKV 172055Z AUTO 19006KT 10SM CLR 35/22 A3003 RMK AO2 T03500223
KPKV 172035Z AUTO 21005KT 10SM CLR 35/23 A3004 RMK AO2 T03480227
KPKV 172015Z AUTO 20007KT 10SM CLR 34/23 A3004 RMK AO2 T03410229
KPKV 171955Z AUTO 20007KT 10SM CLR 35/22 A3005 RMK AO2 T03500223
KPKV 171935Z AUTO 21009KT 10SM CLR 35/23 A3005 RMK AO2 T03510231
KPKV 171915Z AUTO 16004KT 10SM CLR 35/22 A3005 RMK AO2 T03500215
KPKV 171855Z AUTO 18005KT 10SM CLR 35/22 A3005 RMK AO2 T03500215
KPKV 171835Z AUTO 19004KT 10SM CLR 35/23 A3005 RMK AO2 T03460225
KPKV 171820Z AUTO 17007KT 10SM SCT041 34/23 A3006 RMK AO2 T03440228
KPKV 171800Z AUTO 20005KT 10SM CLR 35/23 A3006 RMK AO2 T03450228
KPKV 171735Z AUTO 19003KT 10SM SCT038 34/23 A3007 RMK AO2 T03350231
KPKV 171715Z AUTO 19007KT 10SM SCT038 34/24 A3007 RMK AO2 T03390238
KPKV 171655Z AUTO 19008KT 10SM SCT033 33/23 A3008 RMK AO2 T03340230
KPKV 171635Z AUTO 23005KT 10SM SCT033 33/24 A3008 RMK AO2 T03290238
KPKV 171620Z AUTO 22007KT 10SM SCT033 33/24 A3008 RMK AO2 T03280239
KPKV 171600Z AUTO 21006KT 7SM SCT025 SCT034 32/24 A3009 RMK AO2 T03220241
KPKV 171535Z AUTO 25007KT 7SM SCT027 BKN034 BKN042 32/25 A3008 RMK AO2 T03150254
KPKV 171515Z AUTO 21005KT 7SM CLR 31/25 A3008 RMK AO2 T03130251
KPKV 171455Z AUTO 22006KT 10SM SCT016 31/26 A3009 RMK AO2 T03080257
KPKV 171435Z AUTO 24005KT 7SM SCT015 SCT019 SCT038 30/26 A3009 RMK AO2 T03020260
KPKV 171415Z AUTO 23004KT 7SM SCT015 BKN021 SCT038 29/26 A3009 RMK AO2 T02910260